Zenken Maru — JG5556 — position and weather

sailwx.info

Track history (hours):
 
Tides and Currents Weather Stations Pressure Air Temp Water Temp Dewpoint Dewpoint Depression Visibility Wind Speed Wind Dir Waves Ship Positions

Zenken Maru

Last reported at 2014-Dec-18 21:31 UTC. Time now 2014-Dec-18 21:41 UTC.
Position N 35°21' E 139°41'.

Length 98 m; draft 7.2 m.

Type: Cargo ship. MMSI: 431100955.

Date/timePositionNaut miles runAvg speedWind from/ knotsBaromVisibWave heightAir tempDewpointWater temp
2014-Dec-18 21:31N 35°21' E 139°41'0 0.0
2014-Dec-18 20:28N 35°21' E 139°41'0 0.0
2014-Dec-18 19:31N 35°21' E 139°41'0 0.0
2014-Dec-18 18:31N 35°21' E 139°41'0 0.1
2014-Dec-18 17:28N 35°21' E 139°41'0 0.1
2014-Dec-18 16:31N 35°21' E 139°41'0 0.0
2014-Dec-18 15:31N 35°21' E 139°41'0 0.1
2014-Dec-18 14:31N 35°21' E 139°41'0 0.1
2014-Dec-18 13:31N 35°21' E 139°41'0 0.0
2014-Dec-18 12:31N 35°21' E 139°41'0 0.0
2014-Dec-18 11:31N 35°21' E 139°41'0 0.0
2014-Dec-18 10:28N 35°21' E 139°41'0 0.0
2014-Dec-18 09:28N 35°21' E 139°41'0 0.0
2014-Dec-18 08:31N 35°21' E 139°41'0 0.0
2014-Dec-18 07:28N 35°21' E 139°41'0 0.0
2014-Dec-18 06:25N 35°21' E 139°41'0 0.0
2014-Dec-18 05:31N 35°21' E 139°41'0 0.0
2014-Dec-18 04:31N 35°21' E 139°41'0 0.1
2014-Dec-18 03:31N 35°21' E 139°41'0 0.1
2014-Dec-18 02:31N 35°21' E 139°41'0 0.1
2014-Dec-18 01:31N 35°21' E 139°41'0 0.0
2014-Dec-18 00:34N 35°21' E 139°41'0 0.0
2014-Dec-17 23:31N 35°21' E 139°41'0 0.1
2014-Dec-17 22:31N 35°21' E 139°41'0 0.0
2014-Dec-17 21:31N 35°21' E 139°41'0 0.0
2014-Dec-17 20:31N 35°21' E 139°41'0 0.0
2014-Dec-17 19:33N 35°21' E 139°41'0 0.0
2014-Dec-17 18:34N 35°21' E 139°41'0 0.1
2014-Dec-17 17:33N 35°21' E 139°41'0 0.0
2014-Dec-17 16:33N 35°21' E 139°41'0 0.0
2014-Dec-17 15:33N 35°21' E 139°41'0 0.0
2014-Dec-17 14:34N 35°21' E 139°41'0 0.0
2014-Dec-17 13:33N 35°21' E 139°41'0 0.0
2014-Dec-17 12:32N 35°21' E 139°41'0 0.0
2014-Dec-17 11:33N 35°21' E 139°41'0 0.0
2014-Dec-17 10:32N 35°21' E 139°41'0 0.0
2014-Dec-17 09:33N 35°21' E 139°41'0 0.0
2014-Dec-17 08:34N 35°21' E 139°41'0 0.0
2014-Dec-17 07:32N 35°21' E 139°41'0 0.0
2014-Dec-17 06:33N 35°21' E 139°41'0 0.0
2014-Dec-17 05:34N 35°21' E 139°41'0 0.0
2014-Dec-17 04:30N 35°21' E 139°41'3 3.2
2014-Dec-17 03:31N 35°23' E 139°39'0 0.0
2014-Dec-17 02:28N 35°23' E 139°39'0 0.0
2014-Dec-17 01:31N 35°23' E 139°39'0 0.0
2014-Dec-17 00:31N 35°23' E 139°39'0 0.0
2014-Dec-16 23:31N 35°23' E 139°39'0 0.3
2014-Dec-16 22:33N 35°23' E 139°39'6 6.0
2014-Dec-16 21:33N 35°19' E 139°44'10 9.8
2014-Dec-16 20:32N 35°09' E 139°46'5 0.1
2014-Dec-15 04:31N 35°14' E 139°46'1111.1
2014-Dec-15 03:33N 35°23' E 139°39'0 0.3
2014-Dec-15 02:32N 35°23' E 139°39'0 0.0
2014-Dec-15 01:32N 35°23' E 139°39'0 0.0
2014-Dec-15 00:32N 35°23' E 139°39'0 0.0
2014-Dec-14 23:32N 35°23' E 139°39'0 0.0
2014-Dec-14 22:32N 35°23' E 139°39'0 0.0
2014-Dec-14 21:32N 35°23' E 139°39'0 0.0
2014-Dec-14 20:32N 35°23' E 139°39'0 0.0
2014-Dec-14 19:32N 35°23' E 139°39'0 0.0
2014-Dec-14 18:32N 35°23' E 139°39'0 0.0
2014-Dec-14 17:32N 35°23' E 139°39'0 0.0
2014-Dec-14 16:32N 35°23' E 139°39'0 0.0
2014-Dec-14 15:32N 35°23' E 139°39'0 0.0
2014-Dec-14 14:32N 35°23' E 139°39'0 0.0
2014-Dec-14 13:32N 35°23' E 139°39'0 0.0
2014-Dec-14 12:32N 35°23' E 139°39'0 0.0
2014-Dec-14 11:32N 35°23' E 139°39'0 0.0
2014-Dec-14 10:32N 35°23' E 139°39'0 0.0
2014-Dec-14 09:32N 35°23' E 139°39'0 0.0
2014-Dec-14 08:32N 35°23' E 139°39'0 0.0
2014-Dec-14 07:32N 35°23' E 139°39'0 0.0
2014-Dec-14 06:32N 35°23' E 139°39'0 0.0
2014-Dec-14 05:32N 35°23' E 139°39'0 0.0
2014-Dec-14 04:32N 35°23' E 139°39'0 0.0
2014-Dec-14 03:32N 35°23' E 139°39'0 0.0
2014-Dec-14 02:32N 35°23' E 139°39'0 0.0
2014-Dec-14 01:32N 35°23' E 139°39'0 0.0
2014-Dec-14 00:32N 35°23' E 139°39'0 0.0
2014-Dec-13 23:32N 35°23' E 139°39'0 0.0
2014-Dec-13 22:29N 35°23' E 139°39'0 0.0
2014-Dec-13 18:14N 35°23' E 139°39'0 0.0
2014-Dec-13 17:32N 35°23' E 139°39'0 0.0
2014-Dec-13 16:32N 35°23' E 139°39'0 0.0
2014-Dec-13 15:32N 35°23' E 139°39'0 0.0
2014-Dec-13 14:32N 35°23' E 139°39'0 0.0
2014-Dec-13 13:32N 35°23' E 139°39'0 0.0
2014-Dec-13 12:32N 35°23' E 139°39'0 0.0
2014-Dec-13 11:32N 35°23' E 139°39'0 0.0
2014-Dec-13 10:32N 35°23' E 139°39'0 0.0
2014-Dec-13 09:32N 35°23' E 139°39'0 0.0
2014-Dec-13 08:32N 35°23' E 139°39'0 0.0
2014-Dec-13 07:32N 35°23' E 139°39'0 0.0
2014-Dec-13 06:32N 35°23' E 139°39'0 0.0
2014-Dec-13 05:32N 35°23' E 139°39'0 0.0
2014-Dec-13 04:32N 35°23' E 139°39'0 0.0
2014-Dec-13 03:32N 35°23' E 139°39'0 0.0
2014-Dec-13 02:32N 35°23' E 139°39'0 0.0
2014-Dec-13 01:32N 35°23' E 139°39'0 0.0
2014-Dec-13 00:32N 35°23' E 139°39'0 0.0
2014-Dec-12 23:32N 35°23' E 139°39'0 0.0
2014-Dec-12 22:32N 35°23' E 139°39'0 0.0
2014-Dec-12 21:32N 35°23' E 139°39'0 0.0
2014-Dec-12 20:32N 35°23' E 139°39'0 0.0
2014-Dec-12 19:32N 35°23' E 139°39'0 0.0
2014-Dec-12 18:32N 35°23' E 139°39'0 0.0
2014-Dec-12 17:32N 35°23' E 139°39'0 0.0
2014-Dec-12 16:32N 35°23' E 139°39'0 0.0
2014-Dec-12 15:32N 35°23' E 139°39'0 0.0
2014-Dec-12 14:29N 35°23' E 139°39'0 0.0
2014-Dec-12 13:32N 35°23' E 139°39'0 0.0
2014-Dec-12 12:32N 35°23' E 139°39'0 0.0
2014-Dec-12 11:32N 35°23' E 139°39'0 0.0
2014-Dec-12 10:32N 35°23' E 139°39'0 0.0
2014-Dec-12 09:29N 35°23' E 139°39'0 0.0
2014-Dec-12 08:32N 35°23' E 139°39'0 0.0
2014-Dec-12 07:32N 35°23' E 139°39'0 0.0
2014-Dec-12 06:32N 35°23' E 139°39'0 0.0
2014-Dec-12 05:32N 35°23' E 139°39'0 0.0
2014-Dec-12 04:32N 35°23' E 139°39'0 0.0
2014-Dec-12 03:32N 35°23' E 139°39'0 0.0
2014-Dec-12 02:32N 35°23' E 139°39'0 0.0
2014-Dec-12 01:32N 35°23' E 139°39'0 0.0
2014-Dec-12 00:32N 35°23' E 139°39'0 0.0
2014-Dec-11 23:32N 35°23' E 139°39'0 0.0
2014-Dec-11 22:32N 35°23' E 139°39'0 0.0
2014-Dec-11 21:32N 35°23' E 139°39'0 0.0
2014-Dec-11 20:32N 35°23' E 139°39'0 0.0
2014-Dec-11 19:32N 35°23' E 139°39'0 0.0
2014-Dec-11 18:32N 35°23' E 139°39'0 0.0
2014-Dec-11 17:32N 35°23' E 139°39'0 0.0
2014-Dec-11 16:32N 35°23' E 139°39'0 0.0
2014-Dec-11 15:32N 35°23' E 139°39'0 0.0
2014-Dec-11 14:32N 35°23' E 139°39'0 0.0
2014-Dec-11 13:32N 35°23' E 139°39'0 0.0
2014-Dec-11 12:32N 35°23' E 139°39'0 0.0
2014-Dec-11 11:32N 35°23' E 139°39'0 0.0
2014-Dec-11 10:32N 35°23' E 139°39'0 0.0
2014-Dec-11 09:32N 35°23' E 139°39'0 0.0
2014-Dec-11 08:32N 35°23' E 139°39'0 0.0
2014-Dec-11 07:32N 35°23' E 139°39'0 0.0
2014-Dec-11 06:32N 35°23' E 139°39'0 0.0
2014-Dec-11 05:29N 35°23' E 139°39'0 0.0
2014-Dec-11 04:32N 35°23' E 139°39'0 0.0
2014-Dec-11 03:32N 35°23' E 139°39'0 0.0
2014-Dec-11 02:32N 35°23' E 139°39'0 0.0
2014-Dec-11 01:32N 35°23' E 139°39'0 0.0
2014-Dec-11 00:32N 35°23' E 139°39'14 0.4
2014-Dec-09 09:23N 35°10' E 139°46'911.4
2014-Dec-09 08:33N 35°19' E 139°43'5 4.7
2014-Dec-09 07:26N 35°23' E 139°39'0 0.0
2014-Dec-09 06:32N 35°23' E 139°39'0 0.0
2014-Dec-09 05:32N 35°23' E 139°39'0 0.0
2014-Dec-09 04:32N 35°23' E 139°39'0 0.0
2014-Dec-09 03:32N 35°23' E 139°39'0 0.0
2014-Dec-09 02:32N 35°23' E 139°39'0 0.0
2014-Dec-09 01:32N 35°23' E 139°39'0 0.0
2014-Dec-09 00:32N 35°23' E 139°39'0 0.0
2014-Dec-08 23:32N 35°23' E 139°39'2 2.3
2014-Dec-08 22:34N 35°22' E 139°41'1 0.6
2014-Dec-08 21:32N 35°21' E 139°41'  
Track history (hours):
 
Tides and Currents Weather Stations Pressure Air Temp Water Temp Dewpoint Dewpoint Depression Visibility Wind Speed Wind Dir Waves Ship Positions

Zenken Maru

Last reported at 2014-Dec-18 21:31 UTC. Time now 2014-Dec-18 21:41 UTC.
Position N 35°21' E 139°41'.

Length 98 m; draft 7.2 m.

Type: Cargo ship. MMSI: 431100955.

Date/timePositionNaut miles runAvg speedWind from/ knotsBaromVisibWave heightAir tempDewpointWater temp
2014-Dec-18 21:31N 35°21' E 139°41'0 0.0
2014-Dec-18 20:28N 35°21' E 139°41'0 0.0
2014-Dec-18 19:31N 35°21' E 139°41'0 0.0
2014-Dec-18 18:31N 35°21' E 139°41'0 0.1
2014-Dec-18 17:28N 35°21' E 139°41'0 0.1
2014-Dec-18 16:31N 35°21' E 139°41'0 0.0
2014-Dec-18 15:31N 35°21' E 139°41'0 0.1
2014-Dec-18 14:31N 35°21' E 139°41'0 0.1
2014-Dec-18 13:31N 35°21' E 139°41'0 0.0
2014-Dec-18 12:31N 35°21' E 139°41'0 0.0
2014-Dec-18 11:31N 35°21' E 139°41'0 0.0
2014-Dec-18 10:28N 35°21' E 139°41'0 0.0
2014-Dec-18 09:28N 35°21' E 139°41'0 0.0
2014-Dec-18 08:31N 35°21' E 139°41'0 0.0
2014-Dec-18 07:28N 35°21' E 139°41'0 0.0
2014-Dec-18 06:25N 35°21' E 139°41'0 0.0
2014-Dec-18 05:31N 35°21' E 139°41'0 0.0
2014-Dec-18 04:31N 35°21' E 139°41'0 0.1
2014-Dec-18 03:31N 35°21' E 139°41'0 0.1
2014-Dec-18 02:31N 35°21' E 139°41'0 0.1
2014-Dec-18 01:31N 35°21' E 139°41'0 0.0
2014-Dec-18 00:34N 35°21' E 139°41'0 0.0
2014-Dec-17 23:31N 35°21' E 139°41'0 0.1
2014-Dec-17 22:31N 35°21' E 139°41'0 0.0
2014-Dec-17 21:31N 35°21' E 139°41'0 0.0
2014-Dec-17 20:31N 35°21' E 139°41'0 0.0
2014-Dec-17 19:33N 35°21' E 139°41'0 0.0
2014-Dec-17 18:34N 35°21' E 139°41'0 0.1
2014-Dec-17 17:33N 35°21' E 139°41'0 0.0
2014-Dec-17 16:33N 35°21' E 139°41'0 0.0
2014-Dec-17 15:33N 35°21' E 139°41'0 0.0
2014-Dec-17 14:34N 35°21' E 139°41'0 0.0
2014-Dec-17 13:33N 35°21' E 139°41'0 0.0
2014-Dec-17 12:32N 35°21' E 139°41'0 0.0
2014-Dec-17 11:33N 35°21' E 139°41'0 0.0
2014-Dec-17 10:32N 35°21' E 139°41'0 0.0
2014-Dec-17 09:33N 35°21' E 139°41'0 0.0
2014-Dec-17 08:34N 35°21' E 139°41'0 0.0
2014-Dec-17 07:32N 35°21' E 139°41'0 0.0
2014-Dec-17 06:33N 35°21' E 139°41'0 0.0
2014-Dec-17 05:34N 35°21' E 139°41'0 0.0
2014-Dec-17 04:30N 35°21' E 139°41'3 3.2
2014-Dec-17 03:31N 35°23' E 139°39'0 0.0
2014-Dec-17 02:28N 35°23' E 139°39'0 0.0
2014-Dec-17 01:31N 35°23' E 139°39'0 0.0
2014-Dec-17 00:31N 35°23' E 139°39'0 0.0
2014-Dec-16 23:31N 35°23' E 139°39'0 0.3
2014-Dec-16 22:33N 35°23' E 139°39'6 6.0
2014-Dec-16 21:33N 35°19' E 139°44'10 9.8
2014-Dec-16 20:32N 35°09' E 139°46'5 0.1
2014-Dec-15 04:31N 35°14' E 139°46'1111.1
2014-Dec-15 03:33N 35°23' E 139°39'0 0.3
2014-Dec-15 02:32N 35°23' E 139°39'0 0.0
2014-Dec-15 01:32N 35°23' E 139°39'0 0.0
2014-Dec-15 00:32N 35°23' E 139°39'0 0.0
2014-Dec-14 23:32N 35°23' E 139°39'0 0.0
2014-Dec-14 22:32N 35°23' E 139°39'0 0.0
2014-Dec-14 21:32N 35°23' E 139°39'0 0.0
2014-Dec-14 20:32N 35°23' E 139°39'0 0.0
2014-Dec-14 19:32N 35°23' E 139°39'0 0.0
2014-Dec-14 18:32N 35°23' E 139°39'0 0.0
2014-Dec-14 17:32N 35°23' E 139°39'0 0.0
2014-Dec-14 16:32N 35°23' E 139°39'0 0.0
2014-Dec-14 15:32N 35°23' E 139°39'0 0.0
2014-Dec-14 14:32N 35°23' E 139°39'0 0.0
2014-Dec-14 13:32N 35°23' E 139°39'0 0.0
2014-Dec-14 12:32N 35°23' E 139°39'0 0.0
2014-Dec-14 11:32N 35°23' E 139°39'0 0.0
2014-Dec-14 10:32N 35°23' E 139°39'0 0.0
2014-Dec-14 09:32N 35°23' E 139°39'0 0.0
2014-Dec-14 08:32N 35°23' E 139°39'0 0.0
2014-Dec-14 07:32N 35°23' E 139°39'0 0.0
2014-Dec-14 06:32N 35°23' E 139°39'0 0.0
2014-Dec-14 05:32N 35°23' E 139°39'0 0.0
2014-Dec-14 04:32N 35°23' E 139°39'0 0.0
2014-Dec-14 03:32N 35°23' E 139°39'0 0.0
2014-Dec-14 02:32N 35°23' E 139°39'0 0.0
2014-Dec-14 01:32N 35°23' E 139°39'0 0.0
2014-Dec-14 00:32N 35°23' E 139°39'0 0.0
2014-Dec-13 23:32N 35°23' E 139°39'0 0.0
2014-Dec-13 22:29N 35°23' E 139°39'0 0.0
2014-Dec-13 18:14N 35°23' E 139°39'0 0.0
2014-Dec-13 17:32N 35°23' E 139°39'0 0.0
2014-Dec-13 16:32N 35°23' E 139°39'0 0.0
2014-Dec-13 15:32N 35°23' E 139°39'0 0.0
2014-Dec-13 14:32N 35°23' E 139°39'0 0.0
2014-Dec-13 13:32N 35°23' E 139°39'0 0.0
2014-Dec-13 12:32N 35°23' E 139°39'0 0.0
2014-Dec-13 11:32N 35°23' E 139°39'0 0.0
2014-Dec-13 10:32N 35°23' E 139°39'0 0.0
2014-Dec-13 09:32N 35°23' E 139°39'0 0.0
2014-Dec-13 08:32N 35°23' E 139°39'0 0.0
2014-Dec-13 07:32N 35°23' E 139°39'0 0.0
2014-Dec-13 06:32N 35°23' E 139°39'0 0.0
2014-Dec-13 05:32N 35°23' E 139°39'0 0.0
2014-Dec-13 04:32N 35°23' E 139°39'0 0.0
2014-Dec-13 03:32N 35°23' E 139°39'0 0.0
2014-Dec-13 02:32N 35°23' E 139°39'0 0.0
2014-Dec-13 01:32N 35°23' E 139°39'0 0.0
2014-Dec-13 00:32N 35°23' E 139°39'0 0.0
2014-Dec-12 23:32N 35°23' E 139°39'0 0.0
2014-Dec-12 22:32N 35°23' E 139°39'0 0.0
2014-Dec-12 21:32N 35°23' E 139°39'0 0.0
2014-Dec-12 20:32N 35°23' E 139°39'0 0.0
2014-Dec-12 19:32N 35°23' E 139°39'0 0.0
2014-Dec-12 18:32N 35°23' E 139°39'0 0.0
2014-Dec-12 17:32N 35°23' E 139°39'0 0.0
2014-Dec-12 16:32N 35°23' E 139°39'0 0.0
2014-Dec-12 15:32N 35°23' E 139°39'0 0.0
2014-Dec-12 14:29N 35°23' E 139°39'0 0.0
2014-Dec-12 13:32N 35°23' E 139°39'0 0.0
2014-Dec-12 12:32N 35°23' E 139°39'0 0.0
2014-Dec-12 11:32N 35°23' E 139°39'0 0.0
2014-Dec-12 10:32N 35°23' E 139°39'0 0.0
2014-Dec-12 09:29N 35°23' E 139°39'0 0.0
2014-Dec-12 08:32N 35°23' E 139°39'0 0.0
2014-Dec-12 07:32N 35°23' E 139°39'0 0.0
2014-Dec-12 06:32N 35°23' E 139°39'0 0.0
2014-Dec-12 05:32N 35°23' E 139°39'0 0.0
2014-Dec-12 04:32N 35°23' E 139°39'0 0.0
2014-Dec-12 03:32N 35°23' E 139°39'0 0.0
2014-Dec-12 02:32N 35°23' E 139°39'0 0.0
2014-Dec-12 01:32N 35°23' E 139°39'0 0.0
2014-Dec-12 00:32N 35°23' E 139°39'0 0.0
2014-Dec-11 23:32N 35°23' E 139°39'0 0.0
2014-Dec-11 22:32N 35°23' E 139°39'0 0.0
2014-Dec-11 21:32N 35°23' E 139°39'0 0.0
2014-Dec-11 20:32N 35°23' E 139°39'0 0.0
2014-Dec-11 19:32N 35°23' E 139°39'0 0.0
2014-Dec-11 18:32N 35°23' E 139°39'0 0.0
2014-Dec-11 17:32N 35°23' E 139°39'0 0.0
2014-Dec-11 16:32N 35°23' E 139°39'0 0.0
2014-Dec-11 15:32N 35°23' E 139°39'0 0.0
2014-Dec-11 14:32N 35°23' E 139°39'0 0.0
2014-Dec-11 13:32N 35°23' E 139°39'0 0.0
2014-Dec-11 12:32N 35°23' E 139°39'0 0.0
2014-Dec-11 11:32N 35°23' E 139°39'0 0.0
2014-Dec-11 10:32N 35°23' E 139°39'0 0.0
2014-Dec-11 09:32N 35°23' E 139°39'0 0.0
2014-Dec-11 08:32N 35°23' E 139°39'0 0.0
2014-Dec-11 07:32N 35°23' E 139°39'0 0.0
2014-Dec-11 06:32N 35°23' E 139°39'0 0.0
2014-Dec-11 05:29N 35°23' E 139°39'0 0.0
2014-Dec-11 04:32N 35°23' E 139°39'0 0.0
2014-Dec-11 03:32N 35°23' E 139°39'0 0.0
2014-Dec-11 02:32N 35°23' E 139°39'0 0.0
2014-Dec-11 01:32N 35°23' E 139°39'0 0.0
2014-Dec-11 00:32N 35°23' E 139°39'14 0.4
2014-Dec-09 09:23N 35°10' E 139°46'911.4
2014-Dec-09 08:33N 35°19' E 139°43'5 4.7
2014-Dec-09 07:26N 35°23' E 139°39'0 0.0
2014-Dec-09 06:32N 35°23' E 139°39'0 0.0
2014-Dec-09 05:32N 35°23' E 139°39'0 0.0
2014-Dec-09 04:32N 35°23' E 139°39'0 0.0
2014-Dec-09 03:32N 35°23' E 139°39'0 0.0
2014-Dec-09 02:32N 35°23' E 139°39'0 0.0
2014-Dec-09 01:32N 35°23' E 139°39'0 0.0
2014-Dec-09 00:32N 35°23' E 139°39'0 0.0
2014-Dec-08 23:32N 35°23' E 139°39'2 2.3
2014-Dec-08 22:34N 35°22' E 139°41'1 0.6
2014-Dec-08 21:32N 35°21' E 139°41'  

Dump ship's entire track history